createdAt,value
2022-10-08T00:01:06.970Z,29.90
2022-10-08T00:03:37.144Z,29.90
2022-10-08T00:06:08.027Z,29.80
2022-10-08T00:08:37.527Z,29.80
2022-10-08T00:11:07.596Z,30.00
2022-10-08T00:13:41.753Z,30.20
2022-10-08T00:16:10.126Z,30.50
2022-10-08T00:18:39.087Z,30.30
2022-10-08T00:21:09.829Z,30.20
2022-10-08T00:23:38.046Z,30.10
2022-10-08T00:26:07.204Z,30.00
2022-10-08T00:28:35.571Z,29.90
2022-10-08T00:31:07.575Z,29.90
2022-10-08T00:33:36.276Z,29.80
2022-10-08T00:36:04.482Z,29.70
2022-10-08T00:38:34.100Z,30.00
2022-10-08T00:41:02.267Z,30.20
2022-10-08T00:43:38.285Z,30.40
2022-10-08T00:46:06.813Z,30.60
2022-10-08T00:48:34.999Z,30.90
2022-10-08T00:51:03.681Z,31.00
2022-10-08T00:53:33.233Z,30.90
2022-10-08T00:56:01.430Z,30.70
2022-10-08T00:58:29.654Z,30.60
2022-10-08T01:00:57.951Z,30.30
2022-10-08T01:03:26.212Z,30.20
2022-10-08T01:05:56.437Z,30.10
2022-10-08T01:08:27.044Z,30.00
2022-10-08T01:10:59.331Z,30.00
2022-10-08T01:13:33.872Z,30.00
2022-10-08T01:16:03.649Z,30.30
2022-10-08T01:18:34.445Z,30.60
2022-10-08T01:21:04.962Z,30.60
2022-10-08T01:24:14.989Z,30.50
2022-10-08T01:27:05.768Z,30.30
2022-10-08T01:29:37.438Z,30.20
2022-10-08T01:32:08.493Z,30.00
2022-10-08T01:34:38.227Z,30.00
2022-10-08T01:37:07.632Z,29.90
2022-10-08T01:39:36.465Z,29.80
2022-10-08T01:42:04.950Z,29.90
2022-10-08T01:44:35.445Z,30.10
2022-10-08T01:47:07.049Z,30.40
2022-10-08T01:49:38.710Z,30.50
2022-10-08T01:52:08.943Z,30.30
2022-10-08T01:54:37.398Z,30.20
2022-10-08T01:57:05.846Z,30.10
2022-10-08T01:59:36.916Z,30.00
2022-10-08T02:02:07.581Z,30.00
2022-10-08T02:04:37.127Z,29.90
2022-10-08T02:07:07.539Z,29.80
2022-10-08T02:09:36.935Z,29.80
2022-10-08T02:12:05.783Z,30.00
2022-10-08T02:14:35.838Z,30.10
2022-10-08T02:17:09.008Z,30.50
2022-10-08T02:19:43.613Z,30.30
2022-10-08T02:22:11.796Z,30.30
2022-10-08T02:24:41.491Z,30.10
2022-10-08T02:27:09.748Z,30.00
2022-10-08T02:29:41.954Z,29.90
2022-10-08T02:32:11.694Z,29.90
2022-10-08T02:34:41.001Z,29.80
2022-10-08T02:37:10.522Z,29.70
2022-10-08T02:39:55.992Z,29.90
2022-10-08T02:42:24.576Z,30.10
2022-10-08T02:44:54.964Z,30.30
2022-10-08T02:47:24.395Z,30.60
2022-10-08T02:49:54.069Z,30.70
2022-10-08T02:52:22.276Z,31.10
2022-10-08T02:54:50.747Z,30.90
2022-10-08T02:57:20.973Z,30.80
2022-10-08T02:59:49.275Z,30.50
2022-10-08T03:02:20.538Z,30.30
2022-10-08T03:04:49.902Z,30.10
2022-10-08T03:07:18.069Z,30.10
2022-10-08T03:09:46.757Z,30.00
2022-10-08T03:12:14.961Z,30.00
2022-10-08T03:14:43.701Z,30.00
2022-10-08T03:17:12.918Z,30.20
2022-10-08T03:19:42.493Z,30.50
2022-10-08T03:22:10.658Z,30.60
2022-10-08T03:24:38.834Z,30.40
2022-10-08T03:27:06.999Z,30.30
2022-10-08T03:29:35.164Z,30.20
2022-10-08T03:32:03.371Z,30.00
2022-10-08T03:34:31.503Z,30.00
2022-10-08T03:37:01.062Z,30.00
2022-10-08T03:39:29.265Z,29.80
2022-10-08T03:41:57.433Z,29.80
2022-10-08T03:44:25.656Z,30.00
2022-10-08T03:46:53.831Z,30.00
2022-10-08T03:49:22.005Z,30.30
2022-10-08T03:51:50.190Z,30.40
2022-10-08T03:54:19.804Z,30.30
2022-10-08T03:56:48.002Z,30.10
2022-10-08T03:59:16.482Z,30.00
2022-10-08T04:01:44.737Z,30.00
2022-10-08T04:04:12.939Z,30.40
2022-10-08T04:06:41.105Z,29.80
2022-10-08T04:09:10.661Z,29.80
2022-10-08T04:11:40.214Z,29.80
2022-10-08T04:14:08.464Z,30.00
2022-10-08T04:16:36.697Z,30.40
2022-10-08T04:19:04.842Z,30.40
2022-10-08T04:21:33.012Z,30.30
2022-10-08T04:24:01.197Z,30.10
2022-10-08T04:26:29.387Z,30.10
2022-10-08T04:28:58.937Z,30.00
2022-10-08T04:31:27.177Z,29.90
2022-10-08T04:33:55.355Z,30.30
2022-10-08T04:36:24.695Z,29.80
2022-10-08T04:38:52.905Z,29.70
2022-10-08T04:41:21.918Z,29.90
2022-10-08T04:43:50.230Z,30.10
2022-10-08T04:46:20.635Z,30.50
2022-10-08T04:48:49.573Z,30.50
2022-10-08T04:51:17.843Z,30.80
2022-10-08T04:53:46.057Z,30.90
2022-10-08T04:56:15.343Z,30.90
2022-10-08T04:58:43.517Z,30.70
2022-10-08T05:01:13.094Z,30.50
2022-10-08T05:03:43.723Z,30.30
2022-10-08T05:06:11.977Z,30.10
2022-10-08T05:08:40.206Z,30.10
2022-10-08T05:11:08.626Z,30.00
2022-10-08T05:13:36.819Z,29.90
2022-10-08T05:16:05.896Z,29.90
2022-10-08T05:18:34.433Z,30.20
2022-10-08T05:21:08.479Z,30.30
2022-10-08T05:23:36.724Z,30.70
2022-10-08T05:26:12.753Z,30.40
2022-10-08T05:28:40.966Z,30.30
2022-10-08T05:31:09.257Z,30.10
2022-10-08T05:33:37.513Z,30.10
2022-10-08T05:36:08.018Z,30.00
2022-10-08T05:38:36.274Z,29.90
2022-10-08T05:41:11.599Z,29.90
2022-10-08T05:43:39.821Z,29.80
2022-10-08T05:46:08.038Z,30.00
2022-10-08T05:48:36.292Z,30.10
2022-10-08T05:51:07.907Z,30.50
2022-10-08T05:53:37.234Z,30.50
2022-10-08T05:56:06.622Z,30.20
2022-10-08T05:58:35.350Z,30.10
2022-10-08T06:01:04.696Z,30.10
2022-10-08T06:03:32.924Z,30.00
2022-10-08T06:06:03.444Z,29.90
2022-10-08T06:08:32.975Z,29.80
2022-10-08T06:11:01.635Z,29.80
2022-10-08T06:13:29.797Z,29.90
2022-10-08T06:15:58.132Z,30.10
2022-10-08T06:18:26.588Z,30.40
2022-10-08T06:20:54.838Z,30.40
2022-10-08T06:23:24.000Z,30.30
2022-10-08T06:25:53.544Z,30.10
2022-10-08T06:28:21.762Z,30.10
2022-10-08T06:30:50.000Z,30.00
2022-10-08T06:33:18.621Z,29.90
2022-10-08T06:35:46.954Z,29.90
2022-10-08T06:38:15.147Z,29.80
2022-10-08T06:40:43.425Z,29.70
2022-10-08T06:43:13.826Z,30.00
2022-10-08T06:45:42.193Z,30.10
2022-10-08T06:48:11.764Z,30.40
2022-10-08T06:50:40.144Z,30.60
2022-10-08T06:53:09.484Z,30.90
2022-10-08T06:55:37.696Z,31.00
2022-10-08T06:58:06.051Z,30.90
2022-10-08T07:00:35.707Z,30.70
2022-10-08T07:03:03.959Z,30.50
2022-10-08T07:05:32.201Z,30.30
2022-10-08T07:08:00.387Z,30.20
2022-10-08T07:10:32.444Z,30.00
2022-10-08T07:13:01.590Z,30.00
2022-10-08T07:15:31.311Z,29.90
2022-10-08T07:18:04.652Z,29.90
2022-10-08T07:20:32.867Z,30.20
2022-10-08T07:23:01.055Z,30.20
2022-10-08T07:25:29.346Z,31.30
2022-10-08T07:27:57.531Z,30.30
2022-10-08T07:30:28.655Z,30.20
2022-10-08T07:32:56.783Z,30.00
2022-10-08T07:35:26.510Z,30.00
2022-10-08T07:37:54.738Z,30.00
2022-10-08T07:40:24.005Z,29.90
2022-10-08T07:42:52.379Z,29.80
2022-10-08T07:45:20.592Z,29.70
2022-10-08T07:47:48.746Z,30.00
2022-10-08T07:50:17.817Z,30.20
2022-10-08T07:52:47.599Z,30.40
2022-10-08T07:55:16.204Z,30.20
2022-10-08T07:57:44.388Z,30.10
2022-10-08T08:00:13.454Z,30.00
2022-10-08T08:02:41.704Z,29.90
2022-10-08T08:05:10.181Z,29.80
2022-10-08T08:07:38.354Z,29.70
2022-10-08T08:10:09.289Z,29.70
2022-10-08T08:12:37.500Z,29.60
2022-10-08T08:15:06.328Z,29.70
2022-10-08T08:17:35.896Z,30.40
2022-10-08T08:20:04.152Z,30.00
2022-10-08T08:22:32.302Z,30.30
2022-10-08T08:25:00.491Z,30.00
2022-10-08T08:27:30.374Z,30.00
2022-10-08T08:29:58.567Z,29.90
2022-10-08T08:32:28.682Z,29.80
2022-10-08T08:34:56.957Z,29.70
2022-10-08T08:37:25.169Z,29.70
2022-10-08T08:39:53.415Z,29.60
2022-10-08T08:42:26.778Z,29.60
2022-10-08T08:44:58.452Z,29.80
2022-10-08T08:47:29.078Z,29.90
2022-10-08T08:49:58.535Z,30.20
2022-10-08T08:52:27.665Z,30.70
2022-10-08T08:54:56.380Z,30.90
2022-10-08T08:57:36.112Z,31.00
2022-10-08T09:00:07.294Z,30.50
2022-10-08T09:02:36.997Z,30.30
2022-10-08T09:05:07.344Z,30.10
2022-10-08T09:07:40.388Z,30.00
2022-10-08T09:10:09.686Z,30.00
2022-10-08T09:12:38.472Z,29.90
2022-10-08T09:15:16.513Z,29.80
2022-10-08T09:17:44.738Z,29.80
2022-10-08T09:20:15.497Z,29.90
2022-10-08T09:22:45.751Z,30.70
2022-10-08T09:25:15.657Z,30.30
2022-10-08T09:27:47.358Z,30.30
2022-10-08T09:30:37.273Z,30.10
2022-10-08T09:33:16.844Z,30.00
2022-10-08T09:35:45.991Z,29.90
2022-10-08T09:38:23.248Z,29.90
2022-10-08T09:41:01.979Z,29.80
2022-10-08T09:43:33.892Z,29.70
2022-10-08T09:46:05.999Z,29.60
2022-10-08T09:48:34.157Z,29.70
2022-10-08T09:51:03.975Z,30.00
2022-10-08T09:53:39.999Z,30.30
2022-10-08T09:56:08.987Z,30.10
2022-10-08T09:58:40.476Z,30.00
2022-10-08T10:01:14.793Z,29.90
2022-10-08T10:03:48.606Z,29.80
2022-10-08T10:06:21.047Z,29.80
2022-10-08T10:08:56.010Z,29.60
2022-10-08T10:11:28.165Z,29.60
2022-10-08T10:13:56.762Z,29.60
2022-10-08T10:16:27.471Z,29.60
2022-10-08T10:18:58.736Z,29.80
2022-10-08T10:21:31.348Z,29.80
2022-10-08T10:24:18.685Z,30.00
2022-10-08T10:26:50.006Z,29.90
2022-10-08T10:29:19.922Z,29.80
2022-10-08T10:31:50.540Z,29.80
2022-10-08T10:34:20.273Z,29.70
2022-10-08T10:36:50.800Z,29.70
2022-10-08T10:39:25.318Z,29.60
2022-10-08T10:41:57.058Z,29.50
2022-10-08T10:44:26.616Z,29.50
2022-10-08T10:46:57.040Z,29.80
2022-10-08T10:49:28.599Z,29.80
2022-10-08T10:52:04.737Z,30.00
2022-10-08T10:54:45.246Z,30.30
2022-10-08T10:57:17.278Z,30.80
2022-10-08T10:59:47.435Z,30.80
2022-10-08T11:02:24.395Z,30.30
2022-10-08T11:05:01.534Z,30.10
2022-10-08T11:07:58.075Z,30.00
2022-10-08T11:10:35.848Z,29.90
2022-10-08T11:13:08.832Z,29.80
2022-10-08T11:15:38.359Z,29.70
2022-10-08T11:18:28.362Z,29.70
2022-10-08T11:21:02.498Z,29.60
2022-10-08T11:23:39.621Z,29.80
2022-10-08T11:26:22.454Z,29.90
2022-10-08T11:28:56.090Z,30.00
2022-10-08T11:31:28.231Z,30.00
2022-10-08T11:33:57.823Z,30.00
2022-10-08T11:36:32.875Z,29.90
2022-10-08T11:39:05.840Z,29.70
2022-10-08T11:41:37.449Z,29.70
2022-10-08T11:44:05.711Z,29.60
2022-10-08T11:46:36.548Z,29.60
2022-10-08T11:49:45.404Z,29.60
2022-10-08T11:52:14.864Z,29.60
2022-10-08T11:54:43.045Z,29.70
2022-10-08T11:57:17.469Z,30.00
2022-10-08T11:59:45.720Z,30.00
2022-10-08T12:02:23.657Z,29.90
2022-10-08T12:04:54.146Z,29.80
2022-10-08T12:07:26.174Z,29.80
2022-10-08T12:10:29.791Z,29.70
2022-10-08T12:13:25.744Z,29.60
2022-10-08T12:16:06.995Z,29.60
2022-10-08T12:18:53.647Z,29.50
2022-10-08T12:21:50.590Z,29.70
2022-10-08T12:24:55.484Z,29.60
2022-10-08T12:27:34.174Z,30.00
2022-10-08T12:30:03.511Z,29.90
2022-10-08T12:32:32.779Z,29.80
2022-10-08T12:35:01.724Z,29.70
2022-10-08T12:37:44.966Z,29.70
2022-10-08T12:40:21.015Z,29.70
2022-10-08T12:42:49.758Z,29.60
2022-10-08T12:45:21.701Z,29.50
2022-10-08T12:47:53.836Z,29.60
2022-10-08T12:50:45.070Z,29.70
2022-10-08T12:53:15.743Z,30.00
2022-10-08T12:55:46.580Z,30.20
2022-10-08T12:58:17.466Z,30.40
2022-10-08T13:00:46.195Z,30.70
2022-10-08T13:03:16.566Z,30.60
2022-10-08T13:05:44.989Z,30.30
2022-10-08T13:08:28.788Z,30.20
2022-10-08T13:10:57.259Z,30.00
2022-10-08T13:13:45.542Z,30.00
2022-10-08T13:16:14.691Z,29.90
2022-10-08T13:18:43.906Z,29.80
2022-10-08T13:21:35.358Z,29.80
2022-10-08T13:24:05.725Z,29.70
2022-10-08T13:26:43.972Z,29.80
2022-10-08T13:29:28.569Z,29.90
2022-10-08T13:31:58.828Z,30.30
2022-10-08T13:34:28.756Z,30.10
2022-10-08T13:36:58.751Z,30.00
2022-10-08T13:39:30.264Z,30.00
2022-10-08T13:42:00.152Z,29.90
2022-10-08T13:44:28.411Z,29.80
2022-10-08T13:47:00.073Z,29.70
2022-10-08T13:49:31.098Z,29.60
2022-10-08T13:51:59.396Z,29.60
2022-10-08T13:54:32.668Z,29.80
2022-10-08T13:57:01.013Z,29.70
2022-10-08T13:59:30.843Z,30.00
2022-10-08T14:01:59.450Z,30.20
2022-10-08T14:04:27.983Z,30.00
2022-10-08T14:06:56.543Z,30.00
2022-10-08T14:09:25.889Z,30.40
2022-10-08T14:11:56.965Z,29.80
2022-10-08T14:14:25.257Z,29.80
2022-10-08T14:16:53.658Z,29.70
2022-10-08T14:19:21.909Z,29.60
2022-10-08T14:21:50.534Z,29.90
2022-10-08T14:24:19.104Z,30.20
2022-10-08T14:26:47.305Z,31.20
2022-10-08T14:29:16.949Z,31.30
2022-10-08T14:31:45.180Z,31.30
2022-10-08T14:34:13.452Z,32.10
2022-10-08T14:36:41.890Z,31.60
2022-10-08T14:39:11.020Z,31.40
2022-10-08T14:41:40.808Z,31.20
2022-10-08T14:44:08.991Z,31.30
2022-10-08T14:46:38.964Z,32.20
2022-10-08T14:49:07.549Z,32.20
2022-10-08T14:51:38.771Z,32.20
2022-10-08T14:54:07.455Z,32.30
2022-10-08T14:56:41.841Z,32.00
2022-10-08T14:59:10.044Z,31.70
2022-10-08T15:01:42.291Z,31.50
2022-10-08T15:04:12.740Z,31.40
2022-10-08T15:06:41.173Z,31.10
2022-10-08T15:09:11.756Z,31.00
2022-10-08T15:11:40.020Z,30.80
2022-10-08T15:14:09.428Z,30.90
2022-10-08T15:16:39.631Z,31.00
2022-10-08T15:19:08.266Z,31.30
2022-10-08T15:21:37.035Z,31.60
2022-10-08T15:24:05.337Z,31.50
2022-10-08T15:26:33.598Z,31.20
2022-10-08T15:29:02.974Z,31.10
2022-10-08T15:31:31.963Z,30.90
2022-10-08T15:34:01.885Z,30.80
2022-10-08T15:36:33.145Z,30.70
2022-10-08T15:39:01.870Z,30.50
2022-10-08T15:41:31.149Z,30.40
2022-10-08T15:44:03.904Z,30.60
2022-10-08T15:46:32.106Z,30.70
2022-10-08T15:49:02.835Z,31.10
2022-10-08T15:51:31.268Z,31.30
2022-10-08T15:53:59.500Z,31.00
2022-10-08T15:56:27.716Z,30.80
2022-10-08T15:58:56.118Z,30.70
2022-10-08T16:01:24.570Z,30.70
2022-10-08T16:03:53.571Z,30.50
2022-10-08T16:06:24.895Z,30.40
2022-10-08T16:08:53.143Z,30.30
2022-10-08T16:11:22.604Z,30.30
2022-10-08T16:13:52.100Z,30.40
2022-10-08T16:16:20.430Z,30.70
2022-10-08T16:18:51.088Z,31.00
2022-10-08T16:21:20.783Z,31.40
2022-10-08T16:23:50.426Z,34.80
2022-10-08T16:26:21.438Z,34.40
2022-10-08T16:28:50.541Z,35.50
2022-10-08T16:31:19.025Z,35.50
2022-10-08T16:33:47.214Z,35.20
2022-10-08T16:36:15.642Z,35.40
2022-10-08T16:38:43.807Z,35.00
2022-10-08T16:41:14.903Z,34.70
2022-10-08T16:43:46.097Z,34.30
2022-10-08T16:46:15.485Z,34.00
2022-10-08T16:48:43.713Z,33.90
2022-10-08T16:51:12.385Z,34.00
2022-10-08T16:53:40.752Z,34.20
2022-10-08T16:56:09.008Z,34.20
2022-10-08T16:58:38.639Z,33.80
2022-10-08T17:01:08.520Z,33.60
2022-10-08T17:03:36.978Z,33.50
2022-10-08T17:06:05.867Z,33.40
2022-10-08T17:08:34.022Z,33.20
2022-10-08T17:11:05.380Z,33.00
2022-10-08T17:13:33.880Z,32.80
2022-10-08T17:16:04.211Z,32.60
2022-10-08T17:18:33.210Z,32.70
2022-10-08T17:21:01.659Z,33.00
2022-10-08T17:23:33.979Z,33.20
2022-10-08T17:26:04.487Z,33.10
2022-10-08T17:28:33.551Z,32.90
2022-10-08T17:31:03.608Z,32.70
2022-10-08T17:33:35.700Z,32.50
2022-10-08T17:36:05.353Z,32.40
2022-10-08T17:38:33.725Z,32.20
2022-10-08T17:41:01.999Z,32.60
2022-10-08T17:43:30.258Z,32.40
2022-10-08T17:46:08.821Z,32.60
2022-10-08T17:48:40.148Z,32.90
2022-10-08T17:51:08.744Z,33.20
2022-10-08T17:53:36.972Z,33.60
2022-10-08T17:56:06.198Z,33.40
2022-10-08T17:58:34.443Z,33.30
2022-10-08T18:01:09.058Z,33.20
2022-10-08T18:03:37.582Z,33.00
2022-10-08T18:06:06.039Z,32.80
2022-10-08T18:08:34.540Z,32.80
2022-10-08T18:11:03.508Z,32.70
2022-10-08T18:13:31.752Z,32.70
2022-10-08T18:16:03.909Z,32.90
2022-10-08T18:18:33.656Z,33.20
2022-10-08T18:21:02.199Z,33.60
2022-10-08T18:23:30.417Z,33.90
2022-10-08T18:26:28.267Z,34.10
2022-10-08T18:29:06.013Z,34.10
2022-10-08T18:31:53.012Z,34.10
2022-10-08T18:34:31.100Z,34.30
2022-10-08T18:37:17.101Z,34.70
2022-10-08T18:40:05.266Z,34.00
2022-10-08T18:42:49.780Z,33.60
2022-10-08T18:45:37.040Z,33.40
2022-10-08T18:48:15.505Z,33.10
2022-10-08T18:50:53.800Z,33.10
2022-10-08T18:53:47.267Z,33.40
2022-10-08T18:56:24.971Z,33.60
2022-10-08T18:59:01.579Z,33.60
2022-10-08T19:01:46.083Z,33.30
2022-10-08T19:04:31.584Z,33.10
2022-10-08T19:07:17.420Z,32.90
2022-10-08T19:09:54.452Z,32.80
2022-10-08T19:12:32.417Z,32.60
2022-10-08T19:15:07.904Z,32.50
2022-10-08T19:17:49.232Z,32.30
2022-10-08T19:20:26.982Z,32.50
2022-10-08T19:23:12.868Z,32.70
2022-10-08T19:25:57.784Z,33.00
2022-10-08T19:28:37.685Z,32.80
2022-10-08T19:31:23.646Z,32.70
2022-10-08T19:34:09.831Z,32.50
2022-10-08T19:36:55.825Z,32.30
2022-10-08T19:39:44.220Z,32.30
2022-10-08T19:42:37.417Z,32.10
2022-10-08T19:45:20.267Z,32.00
2022-10-08T19:48:00.387Z,32.80
2022-10-08T19:50:49.656Z,33.00
2022-10-08T19:53:43.021Z,36.50
2022-10-08T19:56:32.779Z,36.20
2022-10-08T19:59:13.675Z,36.40
2022-10-08T20:01:51.124Z,36.30
2022-10-08T20:04:25.159Z,36.10
2022-10-08T20:07:05.722Z,35.90
2022-10-08T20:09:43.131Z,35.70
2022-10-08T20:12:35.503Z,35.40
2022-10-08T20:15:19.102Z,35.40
2022-10-08T20:18:06.154Z,35.30
2022-10-08T20:20:58.322Z,35.70
2022-10-08T20:24:00.384Z,35.90
2022-10-08T20:26:46.328Z,36.70
2022-10-08T20:29:30.658Z,36.70
2022-10-08T20:32:14.298Z,36.30
2022-10-08T20:34:46.517Z,35.90
2022-10-08T20:37:28.459Z,36.30
2022-10-08T20:40:05.975Z,35.30
2022-10-08T20:42:44.385Z,35.20
2022-10-08T20:45:23.576Z,34.80
2022-10-08T20:48:05.752Z,34.70
2022-10-08T20:50:43.573Z,34.50
2022-10-08T20:53:34.020Z,34.60
2022-10-08T20:56:25.954Z,34.70
2022-10-08T20:59:10.772Z,35.10
2022-10-08T21:01:48.476Z,34.90
2022-10-08T21:04:23.100Z,34.60
2022-10-08T21:07:02.092Z,34.40
2022-10-08T21:09:31.636Z,34.30
2022-10-08T21:12:18.346Z,34.00
2022-10-08T21:14:52.764Z,33.90
2022-10-08T21:17:32.427Z,33.80
2022-10-08T21:20:14.310Z,33.60
2022-10-08T21:23:07.187Z,33.80
2022-10-08T21:25:45.803Z,34.20
2022-10-08T21:28:15.630Z,34.50
2022-10-08T21:33:54.233Z,33.90
2022-10-08T21:36:28.910Z,33.70
2022-10-08T21:39:02.917Z,33.60
2022-10-08T21:41:44.457Z,33.40
2022-10-08T21:44:28.974Z,33.30
2022-10-08T21:47:07.388Z,33.20
2022-10-08T21:49:44.825Z,33.00
2022-10-08T21:52:19.450Z,33.40
2022-10-08T21:55:03.586Z,33.90
2022-10-08T21:57:38.687Z,33.80
2022-10-08T22:00:13.141Z,33.60
2022-10-08T22:02:49.349Z,33.40
2022-10-08T22:05:29.168Z,33.30
2022-10-08T22:08:07.227Z,33.10
2022-10-08T22:10:53.427Z,32.90
2022-10-08T22:13:27.852Z,32.80
2022-10-08T22:16:16.018Z,32.60
2022-10-08T22:18:58.667Z,32.70
2022-10-08T22:21:42.259Z,33.20
2022-10-08T22:24:20.304Z,33.50
2022-10-08T22:27:03.080Z,33.90
2022-10-08T22:29:36.785Z,33.90
2022-10-08T22:32:16.415Z,34.20
2022-10-08T22:34:54.737Z,34.30
2022-10-08T22:37:31.930Z,33.70
2022-10-08T22:40:11.457Z,33.50
2022-10-08T22:43:02.522Z,33.30
2022-10-08T22:45:45.620Z,33.10
2022-10-08T22:48:34.664Z,32.90
2022-10-08T22:51:10.612Z,32.90
2022-10-08T22:53:50.775Z,32.60
2022-10-08T22:56:27.749Z,33.00
2022-10-08T22:59:09.432Z,33.40
2022-10-08T23:01:43.906Z,33.60
2022-10-08T23:04:23.088Z,33.30
2022-10-08T23:07:02.936Z,33.10
2022-10-08T23:09:38.637Z,32.90
2022-10-08T23:12:12.686Z,32.70
2022-10-08T23:14:52.595Z,32.60
2022-10-08T23:17:40.843Z,32.40
2022-10-08T23:20:21.372Z,32.30
2022-10-08T23:23:08.700Z,32.30
2022-10-08T23:25:43.965Z,32.70
2022-10-08T23:28:21.484Z,33.20
2022-10-08T23:30:56.233Z,33.30
2022-10-08T23:33:31.438Z,32.90
2022-10-08T23:36:11.317Z,32.80
2022-10-08T23:38:51.373Z,32.60
2022-10-08T23:41:32.516Z,32.40
2022-10-08T23:44:13.969Z,32.30
2022-10-08T23:47:00.739Z,32.20
2022-10-08T23:49:52.670Z,32.10
2022-10-08T23:52:31.572Z,32.30
2022-10-08T23:55:14.150Z,32.60
2022-10-08T23:57:50.979Z,32.90
